Time;durP1;ratioP1;P1;durP2;ratioP2;P2;SDS_P1;SDS_P2;PMS_P1;PMS_P2;Temp;Humidity;BMP_temperature;BMP_pressure;BME280_temperature;BME280_humidity;BME280_pressure;Samples;Min_cycle;Max_cycle;Signal;HPM_P1;HPM_P2
2022/01/17 00:01:15;;;;;;;28.15;2.90;;;;;;;;;;5024384;28;20091;-76
2022/01/17 00:03:43;;;;;;;19.85;2.35;;;;;;;;;;5019761;28;20054;-76
2022/01/17 00:06:10;;;;;;;18.33;2.88;;;;;;;;;;5023944;28;20141;-76
2022/01/17 00:08:44;;;;;;;21.08;2.67;;;;;;;;;;5023910;28;20057;-76
2022/01/17 00:11:15;;;;;;;22.58;3.92;;;;;;;;;;5022087;28;20045;-76
2022/01/17 00:13:43;;;;;;;22.27;3.10;;;;;;;;;;5008556;28;20046;-76
2022/01/17 00:16:15;;;;;;;27.58;2.70;;;;;;;;;;5040283;28;20059;-76
2022/01/17 00:21:14;;;;;;;20.27;2.78;;;;;;;;;;5021248;28;20056;-76
2022/01/17 00:23:41;;;;;;;17.13;2.35;;;;;;;;;;5010217;28;20779;-76
2022/01/17 00:26:08;;;;;;;15.98;2.13;;;;;;;;;;5023964;28;20398;-76
2022/01/17 00:28:35;;;;;;;24.17;2.83;;;;;;;;;;5022855;28;20544;-76
2022/01/17 00:31:05;;;;;;;25.15;2.30;;;;;;;;;;5024203;28;20144;-76
2022/01/17 00:33:33;;;;;;;18.65;2.58;;;;;;;;;;5019160;28;20049;-76
2022/01/17 00:36:00;;;;;;;17.92;2.35;;;;;;;;;;5047102;28;20132;-76
2022/01/17 00:38:27;;;;;;;28.70;2.80;;;;;;;;;;5023748;28;20053;-76
2022/01/17 00:40:55;;;;;;;22.60;2.58;;;;;;;;;;5023640;28;20566;-76
2022/01/17 00:43:22;;;;;;;26.00;2.33;;;;;;;;;;5022956;28;20148;-76
2022/01/17 00:45:49;;;;;;;20.17;1.85;;;;;;;;;;5022195;28;20144;-76
2022/01/17 00:48:16;;;;;;;22.65;2.30;;;;;;;;;;5022747;28;20041;-76
2022/01/17 00:50:44;;;;;;;22.60;2.33;;;;;;;;;;5019028;28;20064;-76
2022/01/17 00:53:11;;;;;;;12.93;2.88;;;;;;;;;;5006257;28;20056;-76
2022/01/17 00:55:39;;;;;;;19.10;2.72;;;;;;;;;;5022901;28;20140;-77
2022/01/17 00:58:06;;;;;;;17.90;2.13;;;;;;;;;;5024104;28;20045;-77
2022/01/17 01:00:34;;;;;;;24.25;2.85;;;;;;;;;;5052693;28;20132;-77
2022/01/17 01:03:01;;;;;;;20.30;2.40;;;;;;;;;;5021983;28;20053;-77
2022/01/17 01:05:29;;;;;;;24.27;2.40;;;;;;;;;;5020869;28;20049;-77
2022/01/17 01:07:56;;;;;;;31.20;2.80;;;;;;;;;;5017533;28;20149;-77
2022/01/17 01:10:23;;;;;;;20.92;2.50;;;;;;;;;;5023354;28;20061;-78
2022/01/17 01:12:51;;;;;;;22.80;2.25;;;;;;;;;;5053423;28;20136;-77
2022/01/17 01:29:05;;;;;;;20.45;2.28;;;;;;;;;;5004320;28;20072;-77
2022/01/17 01:31:50;;;;;;;29.10;2.72;;;;;;;;;;5018125;28;20055;-77
2022/01/17 01:34:19;;;;;;;28.67;3.20;;;;;;;;;;5015854;28;20152;-76
2022/01/17 01:36:48;;;;;;;24.85;3.00;;;;;;;;;;5018584;28;20099;-77
2022/01/17 01:39:23;;;;;;;26.65;4.65;;;;;;;;;;5014545;28;20157;-77
2022/01/17 01:41:51;;;;;;;28.10;2.47;;;;;;;;;;5011780;28;20050;-77
2022/01/17 01:44:19;;;;;;;26.10;2.92;;;;;;;;;;5007123;28;20132;-77
2022/01/17 01:46:47;;;;;;;22.02;2.38;;;;;;;;;;5005653;28;20414;-77
2022/01/17 01:49:15;;;;;;;25.77;2.75;;;;;;;;;;5019497;28;20485;-76
2022/01/17 01:51:43;;;;;;;15.43;2.55;;;;;;;;;;5018604;28;20466;-77
2022/01/17 01:54:11;;;;;;;24.48;3.45;;;;;;;;;;5013200;28;20054;-77
2022/01/17 01:56:43;;;;;;;22.27;2.92;;;;;;;;;;5054404;28;20045;-77
2022/01/17 01:59:10;;;;;;;21.73;3.05;;;;;;;;;;5023061;28;20145;-76
2022/01/17 02:01:38;;;;;;;18.35;2.30;;;;;;;;;;5051956;28;20053;-77
2022/01/17 02:04:05;;;;;;;22.02;2.10;;;;;;;;;;5019655;28;20438;-77
2022/01/17 02:06:33;;;;;;;18.88;2.13;;;;;;;;;;5020997;28;20148;-77
2022/01/17 02:09:03;;;;;;;20.70;2.38;;;;;;;;;;5027298;28;20148;-76
2022/01/17 02:11:32;;;;;;;25.98;2.72;;;;;;;;;;5024385;28;20049;-76
2022/01/17 02:13:59;;;;;;;21.63;3.08;;;;;;;;;;5012354;28;20061;-76
2022/01/17 02:16:27;;;;;;;16.15;2.67;;;;;;;;;;5025311;28;20494;-77
2022/01/17 02:18:54;;;;;;;14.10;2.05;;;;;;;;;;5026572;28;20049;-76
2022/01/17 02:21:45;;;;;;;42.20;3.35;;;;;;;;;;5023189;28;20052;-76
2022/01/17 02:24:14;;;;;;;27.85;2.63;;;;;;;;;;5017091;28;20141;-76
2022/01/17 02:26:41;;;;;;;20.33;2.20;;;;;;;;;;5016989;28;20468;-75
2022/01/17 02:29:08;;;;;;;17.50;2.45;;;;;;;;;;5026263;28;20992;-75
2022/01/17 02:31:36;;;;;;;25.25;3.20;;;;;;;;;;5026104;28;20045;-75
2022/01/17 02:34:03;;;;;;;19.63;2.90;;;;;;;;;;5026618;28;20144;-75
2022/01/17 02:36:31;;;;;;;39.72;3.83;;;;;;;;;;5024042;28;20041;-76
2022/01/17 02:38:59;;;;;;;41.50;3.63;;;;;;;;;;5026944;28;20671;-76
2022/01/17 02:41:33;;;;;;;24.83;2.75;;;;;;;;;;5025659;28;20045;-76
2022/01/17 02:44:02;;;;;;;18.93;2.23;;;;;;;;;;5020987;28;20657;-75
2022/01/17 02:46:29;;;;;;;22.60;4.95;;;;;;;;;;5009166;28;20297;-75
2022/01/17 02:48:58;;;;;;;21.73;3.20;;;;;;;;;;5015731;28;20768;-75
2022/01/17 02:51:25;;;;;;;19.58;2.38;;;;;;;;;;5026189;28;20627;-75
2022/01/17 02:53:53;;;;;;;23.98;3.88;;;;;;;;;;5020785;28;20076;-75
2022/01/17 02:56:21;;;;;;;22.92;2.53;;;;;;;;;;5056734;28;20048;-75
2022/01/17 02:58:48;;;;;;;24.42;2.97;;;;;;;;;;5026312;28;20053;-76
2022/01/17 03:01:20;;;;;;;26.92;2.65;;;;;;;;;;5020522;28;20132;-76
2022/01/17 03:03:47;;;;;;;24.05;2.90;;;;;;;;;;5007177;28;20112;-76
2022/01/17 03:06:15;;;;;;;24.85;2.88;;;;;;;;;;5016047;28;20136;-76
2022/01/17 03:08:43;;;;;;;21.30;2.90;;;;;;;;;;5025695;28;20176;-76
2022/01/17 03:11:12;;;;;;;18.83;2.58;;;;;;;;;;5021100;28;20056;-76
2022/01/17 03:13:39;;;;;;;21.98;3.63;;;;;;;;;;5009407;28;20661;-76
2022/01/17 03:16:14;;;;;;;28.15;3.22;;;;;;;;;;5021457;28;20923;-76
2022/01/17 03:18:43;;;;;;;23.15;3.63;;;;;;;;;;5014140;28;20171;-76
2022/01/17 03:21:11;;;;;;;14.00;2.55;;;;;;;;;;5025400;28;20135;-76
2022/01/17 03:23:39;;;;;;;17.10;2.58;;;;;;;;;;5015704;28;20447;-76
2022/01/17 03:26:06;;;;;;;26.70;2.65;;;;;;;;;;5026153;28;20760;-76
2022/01/17 03:28:33;;;;;;;20.08;2.60;;;;;;;;;;5020286;28;20144;-76
2022/01/17 03:31:00;;;;;;;17.77;3.10;;;;;;;;;;5056763;28;20053;-76
2022/01/17 03:33:28;;;;;;;25.10;2.25;;;;;;;;;;5025272;28;20132;-76
2022/01/17 03:35:56;;;;;;;22.88;3.25;;;;;;;;;;5057235;28;20136;-77
2022/01/17 03:38:24;;;;;;;19.10;2.80;;;;;;;;;;5021157;28;20045;-76
2022/01/17 03:40:52;;;;;;;28.00;2.72;;;;;;;;;;5019038;28;20618;-76
2022/01/17 03:43:20;;;;;;;15.23;3.03;;;;;;;;;;5057339;28;20053;-77
2022/01/17 03:45:49;;;;;;;23.10;2.38;;;;;;;;;;5025503;28;20088;-76
2022/01/17 03:48:17;;;;;;;19.80;2.13;;;;;;;;;;5021785;28;20911;-76
2022/01/17 03:50:44;;;;;;;18.15;2.58;;;;;;;;;;5022144;28;20143;-76
2022/01/17 03:53:11;;;;;;;22.27;2.92;;;;;;;;;;5024797;28;20050;-76
2022/01/17 03:55:39;;;;;;;35.78;3.33;;;;;;;;;;5024019;28;20358;-76
2022/01/17 03:58:06;;;;;;;15.50;2.53;;;;;;;;;;5023409;28;20719;-76
2022/01/17 04:00:36;;;;;;;24.17;2.90;;;;;;;;;;5024823;28;20132;-76
2022/01/17 04:03:04;;;;;;;22.25;2.70;;;;;;;;;;5023554;28;20056;-76
2022/01/17 04:05:31;;;;;;;17.60;2.22;;;;;;;;;;5024536;28;20049;-76
2022/01/17 04:07:58;;;;;;;26.33;4.43;;;;;;;;;;5023869;28;20518;-76
2022/01/17 04:10:25;;;;;;;22.48;2.60;;;;;;;;;;5007097;28;20052;-76
2022/01/17 04:12:55;;;;;;;17.95;2.17;;;;;;;;;;5018226;28;20144;-76
2022/01/17 04:15:23;;;;;;;16.15;2.03;;;;;;;;;;5024531;28;20045;-76
2022/01/17 04:17:50;;;;;;;17.27;2.63;;;;;;;;;;5023802;28;20478;-76
2022/01/17 04:20:26;;;;;;;17.13;2.90;;;;;;;;;;5024070;28;20045;-76
2022/01/17 04:22:54;;;;;;;23.73;2.95;;;;;;;;;;5046936;28;20053;-76
2022/01/17 04:25:22;;;;;;;17.50;2.63;;;;;;;;;;5024488;28;20057;-76
2022/01/17 04:27:49;;;;;;;24.45;2.75;;;;;;;;;;5022377;28;20064;-76
2022/01/17 04:30:17;;;;;;;19.60;2.38;;;;;;;;;;5022416;28;20057;-76
2022/01/17 04:32:45;;;;;;;17.67;2.40;;;;;;;;;;5013820;28;20048;-77
2022/01/17 04:35:14;;;;;;;15.73;2.42;;;;;;;;;;5020098;28;20831;-77
2022/01/17 04:37:41;;;;;;;15.15;2.42;;;;;;;;;;5016246;28;20113;-76
2022/01/17 04:40:09;;;;;;;14.40;1.98;;;;;;;;;;5023749;28;20073;-76
2022/01/17 04:42:43;;;;;;;17.95;2.60;;;;;;;;;;5012815;28;20061;-76
2022/01/17 04:45:11;;;;;;;12.63;2.05;;;;;;;;;;5022591;28;20049;-76
2022/01/17 04:47:39;;;;;;;13.43;2.17;;;;;;;;;;5013236;28;20064;-76
2022/01/17 04:50:08;;;;;;;26.15;2.90;;;;;;;;;;5023246;28;20156;-76
2022/01/17 04:52:36;;;;;;;17.10;2.97;;;;;;;;;;5013230;28;20133;-76
2022/01/17 04:55:05;;;;;;;20.83;2.28;;;;;;;;;;5007353;28;20141;-76
2022/01/17 04:57:32;;;;;;;17.20;1.63;;;;;;;;;;5014423;28;20136;-76
2022/01/17 04:59:59;;;;;;;18.50;2.10;;;;;;;;;;5023559;28;20052;-76
2022/01/17 05:02:27;;;;;;;13.77;2.00;;;;;;;;;;5023416;28;20803;-76
2022/01/17 05:04:54;;;;;;;16.75;2.83;;;;;;;;;;5021504;28;20057;-76
2022/01/17 05:07:22;;;;;;;13.10;2.80;;;;;;;;;;5023359;28;20085;-76
2022/01/17 05:09:49;;;;;;;13.75;2.08;;;;;;;;;;5018614;28;20058;-76
2022/01/17 05:12:16;;;;;;;22.75;2.67;;;;;;;;;;5021681;28;20038;-76
2022/01/17 05:14:48;;;;;;;15.75;3.30;;;;;;;;;;5023240;28;20061;-77
2022/01/17 05:19:57;;;;;;;13.10;1.67;;;;;;;;;;5022757;28;20791;-76
2022/01/17 05:22:27;;;;;;;10.30;2.42;;;;;;;;;;5016780;28;20053;-76
2022/01/17 05:24:54;;;;;;;19.25;2.33;;;;;;;;;;5009710;28;20921;-75
2022/01/17 05:27:21;;;;;;;11.65;2.17;;;;;;;;;;5019872;28;20046;-75
2022/01/17 05:29:48;;;;;;;18.80;2.53;;;;;;;;;;5022835;28;20135;-75
2022/01/17 05:32:16;;;;;;;17.08;2.22;;;;;;;;;;5055094;28;20661;-75
2022/01/17 05:34:44;;;;;;;18.83;2.13;;;;;;;;;;5022425;28;20491;-75
2022/01/17 05:37:13;;;;;;;13.13;1.90;;;;;;;;;;5014932;28;20120;-76
2022/01/17 05:39:42;;;;;;;20.27;2.10;;;;;;;;;;5009712;28;20132;-76
2022/01/17 05:42:14;;;;;;;16.13;2.00;;;;;;;;;;5025342;28;20136;-76
2022/01/17 05:44:42;;;;;;;13.43;1.83;;;;;;;;;;5026345;28;20492;-75
2022/01/17 05:47:10;;;;;;;10.65;1.75;;;;;;;;;;5025681;28;20514;-76
2022/01/17 05:49:37;;;;;;;19.10;1.98;;;;;;;;;;5027635;28;20152;-76
2022/01/17 05:52:05;;;;;;;10.80;2.38;;;;;;;;;;5027276;28;20565;-75
2022/01/17 05:54:32;;;;;;;12.73;1.75;;;;;;;;;;5027439;28;20871;-77
2022/01/17 05:56:59;;;;;;;15.73;2.20;;;;;;;;;;5021164;28;20161;-76
2022/01/17 05:59:26;;;;;;;15.20;1.48;;;;;;;;;;5008549;28;20054;-76
2022/01/17 06:01:53;;;;;;;13.13;2.20;;;;;;;;;;5024708;28;20128;-76
2022/01/17 06:04:21;;;;;;;10.68;1.70;;;;;;;;;;5027174;28;20057;-76
2022/01/17 06:06:49;;;;;;;8.23;1.95;;;;;;;;;;5027141;28;20053;-80
2022/01/17 06:09:17;;;;;;;16.88;2.15;;;;;;;;;;5059689;28;20055;-76
2022/01/17 06:11:44;;;;;;;10.00;2.05;;;;;;;;;;5052817;28;20052;-79
2022/01/17 06:14:16;;;;;;;15.50;2.35;;;;;;;;;;5025423;28;20212;-74
2022/01/17 06:16:44;;;;;;;16.75;3.45;;;;;;;;;;5021576;28;20075;-78
2022/01/17 06:19:12;;;;;;;10.55;1.88;;;;;;;;;;5028024;28;20045;-78
2022/01/17 06:21:39;;;;;;;9.73;1.90;;;;;;;;;;5024830;28;20080;-78
2022/01/17 06:24:09;;;;;;;14.32;2.22;;;;;;;;;;5025707;28;20140;-76
2022/01/17 06:27:02;;;;;;;23.92;4.45;;;;;;;;;;5026444;28;20168;-78
2022/01/17 06:29:30;;;;;;;10.07;2.90;;;;;;;;;;5022409;28;20585;-77
2022/01/17 06:31:57;;;;;;;14.18;1.90;;;;;;;;;;5027843;28;20093;-77
2022/01/17 06:34:44;;;;;;;12.45;2.70;;;;;;;;;;5026710;28;20045;-77
2022/01/17 06:37:12;;;;;;;12.23;2.10;;;;;;;;;;5023760;28;20152;-77
2022/01/17 06:39:39;;;;;;;18.88;2.42;;;;;;;;;;5019722;28;20097;-77
2022/01/17 06:42:06;;;;;;;21.55;2.53;;;;;;;;;;5026043;28;20117;-79
2022/01/17 06:44:34;;;;;;;12.55;2.20;;;;;;;;;;5026116;28;20710;-76
2022/01/17 06:47:01;;;;;;;8.63;1.85;;;;;;;;;;5019486;28;20151;-77
2022/01/17 06:49:28;;;;;;;16.45;3.28;;;;;;;;;;5017150;28;20182;-77
2022/01/17 06:51:55;;;;;;;13.23;3.30;;;;;;;;;;5004395;28;20052;-76
2022/01/17 06:54:22;;;;;;;13.73;3.17;;;;;;;;;;5019478;28;20046;-77
2022/01/17 06:56:49;;;;;;;22.25;5.38;;;;;;;;;;5020885;28;20144;-76
2022/01/17 06:59:16;;;;;;;21.70;4.20;;;;;;;;;;5021008;28;20133;-77
2022/01/17 07:01:44;;;;;;;17.73;3.17;;;;;;;;;;5006823;28;20132;-76
2022/01/17 07:04:11;;;;;;;14.43;3.03;;;;;;;;;;5006550;28;20053;-77
2022/01/17 07:06:39;;;;;;;23.55;3.08;;;;;;;;;;5020841;28;20057;-77
2022/01/17 07:09:08;;;;;;;17.45;3.08;;;;;;;;;;5009361;28;20157;-77
2022/01/17 07:11:38;;;;;;;6.20;1.20;;;;;;;;;;5010863;28;20045;-78
2022/01/17 07:14:08;;;;;;;10.07;1.23;;;;;;;;;;5025768;28;20087;-77
2022/01/17 07:16:36;;;;;;;11.20;1.60;;;;;;;;;;5025497;28;20629;-77
2022/01/17 07:19:04;;;;;;;18.90;1.55;;;;;;;;;;5014880;28;20044;-77
2022/01/17 07:21:31;;;;;;;12.63;2.08;;;;;;;;;;5025318;28;20084;-77
2022/01/17 07:23:58;;;;;;;20.10;2.15;;;;;;;;;;5024621;28;20077;-77
2022/01/17 07:26:25;;;;;;;9.55;1.63;;;;;;;;;;5025609;28;20061;-76
2022/01/17 07:28:52;;;;;;;19.60;2.42;;;;;;;;;;5024568;28;20484;-76
2022/01/17 07:31:20;;;;;;;13.60;1.95;;;;;;;;;;5013955;28;20068;-77
2022/01/17 07:33:47;;;;;;;16.23;2.05;;;;;;;;;;5024575;28;20045;-76
2022/01/17 07:36:18;;;;;;;14.52;2.55;;;;;;;;;;5025119;28;20132;-77
2022/01/17 07:38:45;;;;;;;21.13;1.80;;;;;;;;;;5013655;28;20078;-76
2022/01/17 07:41:13;;;;;;;12.57;2.10;;;;;;;;;;5006052;28;20060;-77
2022/01/17 07:43:57;;;;;;;9.27;1.17;;;;;;;;;;5022612;28;20053;-77
2022/01/17 07:46:29;;;;;;;13.02;1.67;;;;;;;;;;5024572;28;20049;-77
2022/01/17 07:49:03;;;;;;;18.55;2.33;;;;;;;;;;5015134;28;20181;-76
2022/01/17 07:51:30;;;;;;;11.85;2.15;;;;;;;;;;5023192;28;20112;-76
2022/01/17 07:53:58;;;;;;;11.38;1.85;;;;;;;;;;5011279;28;20045;-76
2022/01/17 07:56:26;;;;;;;20.88;2.47;;;;;;;;;;5016211;28;20132;-76
2022/01/17 07:58:53;;;;;;;11.77;1.60;;;;;;;;;;5023153;28;20136;-76
2022/01/17 08:01:20;;;;;;;17.33;1.73;;;;;;;;;;5024594;28;20498;-76
2022/01/17 08:03:48;;;;;;;9.50;1.70;;;;;;;;;;5018414;28;20049;-76
2022/01/17 08:06:15;;;;;;;9.35;1.92;;;;;;;;;;5023144;28;20132;-75
2022/01/17 08:08:42;;;;;;;12.52;1.00;;;;;;;;;;5019071;28;20147;-76
2022/01/17 08:11:09;;;;;;;6.45;0.88;;;;;;;;;;5024141;28;20096;-75
2022/01/17 08:13:37;;;;;;;11.65;1.95;;;;;;;;;;5024646;28;20165;-75
2022/01/17 08:16:04;;;;;;;13.70;1.95;;;;;;;;;;5025469;28;20133;-75
2022/01/17 08:18:31;;;;;;;7.10;1.27;;;;;;;;;;5025593;28;20506;-75
2022/01/17 08:20:59;;;;;;;10.40;1.00;;;;;;;;;;5018310;28;20144;-75
2022/01/17 08:23:26;;;;;;;11.07;1.48;;;;;;;;;;5016826;28;20055;-75
2022/01/17 08:25:53;;;;;;;13.43;2.30;;;;;;;;;;5024861;28;20049;-75
2022/01/17 08:28:21;;;;;;;17.40;1.80;;;;;;;;;;5023594;28;20053;-75
2022/01/17 08:30:49;;;;;;;10.50;1.45;;;;;;;;;;5024553;28;20054;-75
2022/01/17 08:33:36;;;;;;;6.00;1.58;;;;;;;;;;5006369;28;20050;-75
2022/01/17 08:36:04;;;;;;;8.73;1.48;;;;;;;;;;5020196;28;20085;-87
2022/01/17 08:38:47;;;;;;;12.63;2.30;;;;;;;;;;5008418;28;20052;-86
2022/01/17 08:41:16;;;;;;;13.88;1.40;;;;;;;;;;5009164;28;20764;-75
2022/01/17 08:43:44;;;;;;;8.32;1.55;;;;;;;;;;5004860;28;20133;-75
2022/01/17 08:46:11;;;;;;;7.30;1.27;;;;;;;;;;5004709;28;20093;-75
2022/01/17 08:48:39;;;;;;;16.30;1.42;;;;;;;;;;5010889;28;20061;-75
2022/01/17 08:51:07;;;;;;;10.35;1.52;;;;;;;;;;5023263;28;20045;-75
2022/01/17 08:53:35;;;;;;;11.65;1.40;;;;;;;;;;5005525;28;20045;-75
2022/01/17 08:56:03;;;;;;;15.32;1.90;;;;;;;;;;5011187;28;20725;-75
2022/01/17 08:58:30;;;;;;;19.38;2.03;;;;;;;;;;5004597;28;20762;-75
2022/01/17 09:00:57;;;;;;;12.90;1.50;;;;;;;;;;5004399;28;20817;-75
2022/01/17 09:03:25;;;;;;;15.27;1.45;;;;;;;;;;5004625;28;20085;-75
2022/01/17 09:05:53;;;;;;;12.75;1.52;;;;;;;;;;5020682;28;20727;-75
2022/01/17 09:08:20;;;;;;;15.75;2.05;;;;;;;;;;5007019;28;20058;-75
2022/01/17 09:10:49;;;;;;;11.70;1.42;;;;;;;;;;5004469;28;20112;-75
2022/01/17 09:13:17;;;;;;;11.98;2.10;;;;;;;;;;5006465;28;20056;-75
2022/01/17 09:15:45;;;;;;;16.98;1.90;;;;;;;;;;5010303;28;20050;-75
2022/01/17 09:18:14;;;;;;;12.25;1.90;;;;;;;;;;5026290;28;20049;-75
2022/01/17 09:20:41;;;;;;;11.82;1.55;;;;;;;;;;5022504;28;20046;-75
2022/01/17 09:23:09;;;;;;;8.70;2.00;;;;;;;;;;5013900;28;20645;-75
2022/01/17 09:25:36;;;;;;;19.10;2.55;;;;;;;;;;5023787;28;20049;-75
2022/01/17 09:28:04;;;;;;;12.45;2.83;;;;;;;;;;5025876;28;20410;-74
2022/01/17 09:30:31;;;;;;;15.23;1.88;;;;;;;;;;5017634;28;20248;-74
2022/01/17 09:32:59;;;;;;;16.65;2.10;;;;;;;;;;5005831;28;20495;-75
2022/01/17 09:35:26;;;;;;;20.95;3.08;;;;;;;;;;5020317;28;20133;-75
2022/01/17 09:37:53;;;;;;;23.23;3.05;;;;;;;;;;5026947;28;20050;-75
2022/01/17 09:40:20;;;;;;;13.25;1.90;;;;;;;;;;5026877;28;20053;-74
2022/01/17 09:42:48;;;;;;;21.00;2.33;;;;;;;;;;5025617;28;20054;-74
2022/01/17 09:45:18;;;;;;;16.30;2.35;;;;;;;;;;5012701;28;20088;-75
2022/01/17 09:47:45;;;;;;;12.05;2.17;;;;;;;;;;5018153;28;20128;-75
2022/01/17 09:50:17;;;;;;;15.63;2.47;;;;;;;;;;5026173;28;20055;-74
2022/01/17 09:52:49;;;;;;;19.40;3.28;;;;;;;;;;5026581;28;20808;-75
2022/01/17 09:55:21;;;;;;;28.73;3.55;;;;;;;;;;5015767;28;20140;-74
2022/01/17 09:57:52;;;;;;;13.70;1.90;;;;;;;;;;5022205;28;20049;-74
2022/01/17 10:00:25;;;;;;;20.20;2.63;;;;;;;;;;5006283;28;20152;-75
2022/01/17 10:02:53;;;;;;;23.55;3.42;;;;;;;;;;5018674;28;20132;-74
2022/01/17 10:05:20;;;;;;;15.13;2.40;;;;;;;;;;5027129;28;20088;-75
2022/01/17 10:07:52;;;;;;;19.90;2.63;;;;;;;;;;5018628;28;20984;-75
2022/01/17 10:10:34;;;;;;;14.50;2.92;;;;;;;;;;5023359;28;20160;-74
2022/01/17 10:13:06;;;;;;;23.17;4.45;;;;;;;;;;5007439;28;20149;-76
2022/01/17 10:15:45;;;;;;;18.02;2.78;;;;;;;;;;5009294;28;20088;-76
2022/01/17 10:18:32;;;;;;;18.80;2.47;;;;;;;;;;5019176;28;20554;-76
2022/01/17 10:21:08;;;;;;;11.80;2.53;;;;;;;;;;4998536;28;20059;-76
2022/01/17 10:23:56;;;;;;;19.13;2.67;;;;;;;;;;5012100;28;20140;-77
2022/01/17 10:26:49;;;;;;;24.58;2.40;;;;;;;;;;5025904;28;20133;-76
2022/01/17 10:34:56;;;;;;;22.02;3.55;;;;;;;;;;5026708;28;20050;-76
2022/01/17 10:37:29;;;;;;;15.57;2.35;;;;;;;;;;5016399;28;20136;-75
2022/01/17 10:40:02;;;;;;;16.15;2.70;;;;;;;;;;5032888;28;20049;-90
2022/01/17 10:42:30;;;;;;;18.42;3.00;;;;;;;;;;5022564;28;20050;-88
2022/01/17 10:45:08;;;;;;;21.92;2.85;;;;;;;;;;5010291;28;20737;-75
2022/01/17 10:47:39;;;;;;;19.88;2.88;;;;;;;;;;5015008;28;20145;-75
2022/01/17 10:50:10;;;;;;;19.85;2.17;;;;;;;;;;5011013;28;20153;-75
2022/01/17 10:52:42;;;;;;;16.33;2.20;;;;;;;;;;5005696;28;20658;-75
2022/01/17 10:55:13;;;;;;;13.18;2.63;;;;;;;;;;5018952;28;20071;-76
2022/01/17 10:57:42;;;;;;;21.13;3.67;;;;;;;;;;5010594;28;20174;-75
2022/01/17 11:00:30;;;;;;;24.65;3.58;;;;;;;;;;5025373;28;20791;-75
2022/01/17 11:03:02;;;;;;;20.95;3.42;;;;;;;;;;5042936;28;20431;-75
2022/01/17 11:05:31;;;;;;;19.67;3.15;;;;;;;;;;5011600;28;20103;-76
2022/01/17 11:08:01;;;;;;;15.80;4.53;;;;;;;;;;5014784;28;20127;-75
2022/01/17 11:10:33;;;;;;;24.15;3.92;;;;;;;;;;5007318;28;20057;-75
2022/01/17 11:13:02;;;;;;;26.13;3.28;;;;;;;;;;5022734;28;20132;-75
2022/01/17 11:15:34;;;;;;;27.77;5.10;;;;;;;;;;5024189;28;20076;-75
2022/01/17 11:18:08;;;;;;;18.27;2.65;;;;;;;;;;5016628;28;20045;-75
2022/01/17 11:20:35;;;;;;;16.48;2.85;;;;;;;;;;5004583;28;20057;-75
2022/01/17 11:23:03;;;;;;;21.05;2.47;;;;;;;;;;5016882;28;20084;-75
2022/01/17 11:25:32;;;;;;;12.63;2.35;;;;;;;;;;5025714;28;20080;-74
2022/01/17 11:27:59;;;;;;;9.07;1.88;;;;;;;;;;5015765;28;20049;-75
2022/01/17 11:30:27;;;;;;;12.77;1.88;;;;;;;;;;5024015;28;20103;-75
2022/01/17 11:32:55;;;;;;;17.48;2.45;;;;;;;;;;5010338;28;20085;-75
2022/01/17 11:35:23;;;;;;;24.02;4.28;;;;;;;;;;5022851;28;20140;-74
2022/01/17 11:37:53;;;;;;;15.25;2.40;;;;;;;;;;5019606;28;20178;-75
2022/01/17 11:40:22;;;;;;;20.27;2.60;;;;;;;;;;5002745;28;20104;-75
2022/01/17 11:42:51;;;;;;;14.60;3.03;;;;;;;;;;5012608;28;20160;-75
2022/01/17 11:45:21;;;;;;;16.70;2.10;;;;;;;;;;5024110;28;20136;-75
2022/01/17 11:47:49;;;;;;;22.65;2.78;;;;;;;;;;5011180;28;20081;-75
2022/01/17 11:50:36;;;;;;;26.88;3.45;;;;;;;;;;5003241;28;20471;-75
2022/01/17 11:53:13;;;;;;;15.35;2.45;;;;;;;;;;5019128;28;20140;-74
2022/01/17 11:55:40;;;;;;;23.67;3.45;;;;;;;;;;5021423;28;20732;-74
2022/01/17 11:58:24;;;;;;;11.77;2.90;;;;;;;;;;5022153;28;20053;-74
2022/01/17 12:01:05;;;;;;;22.02;2.85;;;;;;;;;;5023906;28;20120;-74
2022/01/17 12:03:40;;;;;;;21.08;2.72;;;;;;;;;;5022545;28;20053;-74
2022/01/17 12:06:21;;;;;;;27.63;3.25;;;;;;;;;;5023877;28;20132;-74
2022/01/17 12:08:50;;;;;;;16.88;3.67;;;;;;;;;;5019885;28;20486;-74
2022/01/17 12:11:28;;;;;;;24.77;3.03;;;;;;;;;;5021491;28;20581;-75
2022/01/17 12:14:00;;;;;;;20.38;2.97;;;;;;;;;;5003123;28;20165;-75
2022/01/17 12:16:30;;;;;;;23.13;3.50;;;;;;;;;;5004731;28;20089;-75
2022/01/17 12:19:03;;;;;;;23.27;3.42;;;;;;;;;;5024594;28;20085;-75
2022/01/17 12:21:33;;;;;;;23.25;4.18;;;;;;;;;;5021249;28;20194;-75
2022/01/17 12:24:15;;;;;;;16.40;3.22;;;;;;;;;;5013176;28;20092;-75
2022/01/17 12:26:57;;;;;;;21.35;3.95;;;;;;;;;;5022387;28;20667;-75
2022/01/17 12:29:54;;;;;;;19.10;3.10;;;;;;;;;;5024334;28;20180;-74
2022/01/17 12:32:22;;;;;;;10.68;2.20;;;;;;;;;;5000501;28;20060;-74
2022/01/17 12:34:49;;;;;;;14.70;2.95;;;;;;;;;;5004025;28;20050;-75
2022/01/17 12:37:36;;;;;;;13.10;2.35;;;;;;;;;;5013411;28;20157;-75
2022/01/17 12:40:19;;;;;;;13.63;1.90;;;;;;;;;;5024384;28;20053;-75
2022/01/17 12:42:50;;;;;;;10.27;2.83;;;;;;;;;;5022930;28;20145;-75
2022/01/17 12:45:21;;;;;;;11.23;1.67;;;;;;;;;;5024057;28;20061;-75
2022/01/17 12:47:49;;;;;;;19.05;2.47;;;;;;;;;;5013186;28;20144;-75
2022/01/17 12:50:18;;;;;;;13.93;1.75;;;;;;;;;;5010804;28;20250;-75
2022/01/17 12:52:45;;;;;;;8.27;1.63;;;;;;;;;;5004400;28;20582;-75
2022/01/17 12:55:12;;;;;;;14.73;1.60;;;;;;;;;;5016288;28;20050;-75
2022/01/17 12:57:43;;;;;;;9.82;1.88;;;;;;;;;;5023825;28;20584;-75
2022/01/17 13:00:21;;;;;;;13.52;2.28;;;;;;;;;;5024345;28;20451;-75
2022/01/17 13:02:50;;;;;;;11.65;1.80;;;;;;;;;;5022224;28;20107;-72
2022/01/17 13:05:22;;;;;;;9.02;2.10;;;;;;;;;;5009665;28;20057;-74
2022/01/17 13:07:49;;;;;;;19.88;2.42;;;;;;;;;;5014989;28;20662;-74
2022/01/17 13:10:17;;;;;;;12.63;2.25;;;;;;;;;;5023709;28;20763;-75
2022/01/17 13:12:44;;;;;;;15.73;2.85;;;;;;;;;;5010552;28;20054;-74
2022/01/17 13:15:12;;;;;;;13.27;2.10;;;;;;;;;;5005079;28;20064;-74
2022/01/17 13:17:39;;;;;;;20.40;2.60;;;;;;;;;;5020126;28;20661;-75
2022/01/17 13:20:08;;;;;;;28.15;3.75;;;;;;;;;;5024020;28;20084;-75
2022/01/17 13:22:53;;;;;;;23.10;3.55;;;;;;;;;;5013055;28;20138;-74
2022/01/17 13:25:21;;;;;;;17.02;3.58;;;;;;;;;;5022253;28;20156;-75
2022/01/17 13:27:52;;;;;;;17.05;5.40;;;;;;;;;;5007645;28;20162;-85
2022/01/17 13:30:19;;;;;;;22.05;6.90;;;;;;;;;;5009973;28;20049;-85
2022/01/17 13:33:11;;;;;;;18.73;5.43;;;;;;;;;;5010686;28;20058;-86
2022/01/17 13:35:43;;;;;;;24.25;5.18;;;;;;;;;;5017396;28;20510;-85
2022/01/17 13:38:17;;;;;;;17.45;2.40;;;;;;;;;;5030127;28;20072;-86
2022/01/17 13:40:45;;;;;;;19.95;4.25;;;;;;;;;;5029552;28;20052;-86
2022/01/17 13:43:12;;;;;;;27.13;6.72;;;;;;;;;;5027752;28;20406;-85
2022/01/17 13:45:46;;;;;;;20.38;3.55;;;;;;;;;;5028728;28;20530;-86
2022/01/17 13:48:14;;;;;;;12.43;3.03;;;;;;;;;;5013473;28;20130;-87
2022/01/17 13:50:54;;;;;;;18.15;2.50;;;;;;;;;;5028612;28;20060;-85
2022/01/17 13:53:28;;;;;;;23.25;2.75;;;;;;;;;;5030400;28;20140;-85
2022/01/17 13:55:57;;;;;;;13.63;2.40;;;;;;;;;;5017600;28;20045;-75
2022/01/17 13:58:27;;;;;;;14.73;2.13;;;;;;;;;;5006325;28;20044;-75
2022/01/17 14:00:58;;;;;;;11.98;2.13;;;;;;;;;;5016113;28;20045;-75
2022/01/17 14:03:27;;;;;;;16.25;2.78;;;;;;;;;;5010308;28;20050;-75
2022/01/17 14:05:55;;;;;;;16.00;3.70;;;;;;;;;;5025170;28;20089;-75
2022/01/17 14:08:25;;;;;;;19.35;2.35;;;;;;;;;;5018358;28;20161;-75
2022/01/17 14:10:57;;;;;;;20.88;2.45;;;;;;;;;;5025839;28;20049;-75
2022/01/17 14:13:45;;;;;;;16.33;2.67;;;;;;;;;;5007914;28;20148;-75
2022/01/17 14:16:21;;;;;;;13.57;2.45;;;;;;;;;;4997882;28;20515;-75
2022/01/17 14:18:53;;;;;;;19.00;2.38;;;;;;;;;;5016764;28;20149;-75
2022/01/17 14:21:48;;;;;;;13.80;2.00;;;;;;;;;;5023733;28;20057;-74
2022/01/17 14:24:20;;;;;;;17.48;3.40;;;;;;;;;;5018219;28;20044;-74
2022/01/17 14:27:09;;;;;;;11.07;2.00;;;;;;;;;;5025371;28;20179;-74
2022/01/17 14:29:41;;;;;;;8.32;1.67;;;;;;;;;;5025757;28;20057;-74
2022/01/17 14:32:11;;;;;;;13.18;2.22;;;;;;;;;;5025167;28;20046;-74
2022/01/17 14:34:39;;;;;;;15.55;2.33;;;;;;;;;;5008896;28;20491;-75
2022/01/17 14:37:15;;;;;;;21.85;2.85;;;;;;;;;;5025447;28;20085;-74
2022/01/17 14:39:48;;;;;;;13.27;2.55;;;;;;;;;;5026448;28;20055;-74
2022/01/17 14:42:19;;;;;;;9.48;1.80;;;;;;;;;;5024352;28;20037;-75
2022/01/17 14:44:50;;;;;;;8.57;1.77;;;;;;;;;;5024420;28;20053;-74
2022/01/17 14:47:18;;;;;;;13.65;1.73;;;;;;;;;;5023746;28;20148;-74
2022/01/17 14:49:48;;;;;;;13.43;1.85;;;;;;;;;;5017499;28;20478;-73
2022/01/17 14:52:17;;;;;;;17.05;1.73;;;;;;;;;;5015904;28;20054;-74
2022/01/17 14:54:52;;;;;;;12.70;1.95;;;;;;;;;;5020404;28;20139;-74
2022/01/17 15:03:07;;;;;;;20.27;2.83;;;;;;;;;;5010680;28;20452;-74
2022/01/17 15:05:35;;;;;;;17.75;3.28;;;;;;;;;;5011142;28;20060;-74
2022/01/17 15:08:03;;;;;;;9.73;1.90;;;;;;;;;;5010915;28;20088;-74
2022/01/17 15:10:31;;;;;;;8.95;2.45;;;;;;;;;;5004727;28;20793;-74
2022/01/17 15:13:00;;;;;;;10.40;1.98;;;;;;;;;;5005469;28;20081;-74
2022/01/17 15:15:30;;;;;;;13.80;3.78;;;;;;;;;;5011095;28;20050;-74
2022/01/17 15:18:01;;;;;;;12.02;1.92;;;;;;;;;;5016769;28;20050;-74